sensor_id;sensor_type;location;lat;lon;timestamp;P1;durP1;ratioP1;P2;durP2;ratioP2
56824;SDS011;42705;50.326;18.772;2023-03-11T00:05:06;3.50;;;1.60;;
56824;SDS011;42705;50.326;18.772;2023-03-11T00:10:39;2.00;;;1.00;;
56824;SDS011;42705;50.326;18.772;2023-03-11T00:21:24;2.40;;;1.00;;
56824;SDS011;42705;50.326;18.772;2023-03-11T00:26:46;2.90;;;1.10;;
56824;SDS011;42705;50.326;18.772;2023-03-11T00:32:08;2.10;;;1.10;;
56824;SDS011;42705;50.326;18.772;2023-03-11T00:37:31;2.20;;;1.20;;
56824;SDS011;42705;50.326;18.772;2023-03-11T00:42:55;2.10;;;1.20;;
56824;SDS011;42705;50.326;18.772;2023-03-11T00:48:17;5.00;;;1.40;;
56824;SDS011;42705;50.326;18.772;2023-03-11T00:53:39;1.90;;;1.00;;
56824;SDS011;42705;50.326;18.772;2023-03-11T01:04:24;1.80;;;0.70;;
56824;SDS011;42705;50.326;18.772;2023-03-11T01:09:46;1.10;;;0.50;;
56824;SDS011;42705;50.326;18.772;2023-03-11T01:15:08;1.50;;;0.60;;
56824;SDS011;42705;50.326;18.772;2023-03-11T01:20:37;0.80;;;0.50;;
56824;SDS011;42705;50.326;18.772;2023-03-11T01:25:59;1.90;;;0.90;;
56824;SDS011;42705;50.326;18.772;2023-03-11T01:31:21;0.90;;;0.50;;
56824;SDS011;42705;50.326;18.772;2023-03-11T01:36:44;2.10;;;0.70;;
56824;SDS011;42705;50.326;18.772;2023-03-11T01:42:06;1.10;;;0.80;;
56824;SDS011;42705;50.326;18.772;2023-03-11T01:47:31;0.90;;;0.40;;
56824;SDS011;42705;50.326;18.772;2023-03-11T01:52:58;0.60;;;0.60;;
56824;SDS011;42705;50.326;18.772;2023-03-11T01:58:22;1.50;;;0.70;;
56824;SDS011;42705;50.326;18.772;2023-03-11T02:03:47;1.00;;;0.60;;
56824;SDS011;42705;50.326;18.772;2023-03-11T02:09:10;1.00;;;0.50;;
56824;SDS011;42705;50.326;18.772;2023-03-11T02:14:33;0.90;;;0.60;;
56824;SDS011;42705;50.326;18.772;2023-03-11T02:25:48;1.10;;;0.60;;
56824;SDS011;42705;50.326;18.772;2023-03-11T02:31:15;1.10;;;0.80;;
56824;SDS011;42705;50.326;18.772;2023-03-11T02:36:39;1.40;;;0.70;;
56824;SDS011;42705;50.326;18.772;2023-03-11T02:42:09;1.50;;;0.80;;
56824;SDS011;42705;50.326;18.772;2023-03-11T02:47:47;2.40;;;0.70;;
56824;SDS011;42705;50.326;18.772;2023-03-11T02:53:10;1.00;;;0.80;;
56824;SDS011;42705;50.326;18.772;2023-03-11T02:58:32;3.40;;;1.40;;
56824;SDS011;42705;50.326;18.772;2023-03-11T03:03:54;2.70;;;1.00;;
56824;SDS011;42705;50.326;18.772;2023-03-11T03:09:16;2.20;;;0.80;;
56824;SDS011;42705;50.326;18.772;2023-03-11T03:14:38;3.10;;;1.10;;
56824;SDS011;42705;50.326;18.772;2023-03-11T03:20:00;2.10;;;0.80;;
56824;SDS011;42705;50.326;18.772;2023-03-11T03:25:25;0.90;;;0.70;;
56824;SDS011;42705;50.326;18.772;2023-03-11T03:30:50;1.10;;;0.90;;
56824;SDS011;42705;50.326;18.772;2023-03-11T03:36:13;4.00;;;1.00;;
56824;SDS011;42705;50.326;18.772;2023-03-11T03:41:39;1.40;;;0.70;;
56824;SDS011;42705;50.326;18.772;2023-03-11T03:47:02;1.70;;;0.90;;
56824;SDS011;42705;50.326;18.772;2023-03-11T03:52:25;1.70;;;0.80;;
56824;SDS011;42705;50.326;18.772;2023-03-11T03:57:47;2.20;;;1.10;;
56824;SDS011;42705;50.326;18.772;2023-03-11T04:03:10;1.20;;;0.70;;
56824;SDS011;42705;50.326;18.772;2023-03-11T04:08:40;2.10;;;1.00;;
56824;SDS011;42705;50.326;18.772;2023-03-11T04:14:04;0.90;;;0.80;;
56824;SDS011;42705;50.326;18.772;2023-03-11T04:19:29;2.30;;;0.70;;
56824;SDS011;42705;50.326;18.772;2023-03-11T04:24:51;4.20;;;1.60;;
56824;SDS011;42705;50.326;18.772;2023-03-11T04:30:13;2.60;;;1.00;;
56824;SDS011;42705;50.326;18.772;2023-03-11T04:35:37;3.30;;;0.80;;
56824;SDS011;42705;50.326;18.772;2023-03-11T04:41:01;1.30;;;0.80;;
56824;SDS011;42705;50.326;18.772;2023-03-11T04:46:25;2.00;;;1.00;;
56824;SDS011;42705;50.326;18.772;2023-03-11T04:51:47;0.80;;;0.50;;
56824;SDS011;42705;50.326;18.772;2023-03-11T04:57:10;0.90;;;0.90;;
56824;SDS011;42705;50.326;18.772;2023-03-11T05:02:33;1.80;;;0.80;;
56824;SDS011;42705;50.326;18.772;2023-03-11T05:07:56;1.30;;;0.80;;
56824;SDS011;42705;50.326;18.772;2023-03-11T05:13:20;1.60;;;1.00;;
56824;SDS011;42705;50.326;18.772;2023-03-11T05:18:43;1.60;;;0.80;;
56824;SDS011;42705;50.326;18.772;2023-03-11T05:24:06;1.90;;;1.40;;
56824;SDS011;42705;50.326;18.772;2023-03-11T05:29:29;0.80;;;0.40;;
56824;SDS011;42705;50.326;18.772;2023-03-11T05:34:51;0.50;;;0.50;;
56824;SDS011;42705;50.326;18.772;2023-03-11T05:40:14;0.90;;;0.70;;
56824;SDS011;42705;50.326;18.772;2023-03-11T05:51:06;2.00;;;0.90;;
56824;SDS011;42705;50.326;18.772;2023-03-11T05:56:29;0.60;;;0.40;;
56824;SDS011;42705;50.326;18.772;2023-03-11T06:01:51;0.30;;;0.30;;
56824;SDS011;42705;50.326;18.772;2023-03-11T06:07:13;0.50;;;0.50;;
56824;SDS011;42705;50.326;18.772;2023-03-11T06:12:38;1.10;;;0.70;;
56824;SDS011;42705;50.326;18.772;2023-03-11T06:18:15;0.80;;;0.80;;
56824;SDS011;42705;50.326;18.772;2023-03-11T06:23:38;0.50;;;0.50;;
56824;SDS011;42705;50.326;18.772;2023-03-11T06:34:23;1.70;;;1.60;;
56824;SDS011;42705;50.326;18.772;2023-03-11T06:39:46;1.50;;;1.30;;
56824;SDS011;42705;50.326;18.772;2023-03-11T06:45:11;3.10;;;2.30;;
56824;SDS011;42705;50.326;18.772;2023-03-11T06:50:35;1.90;;;1.50;;
56824;SDS011;42705;50.326;18.772;2023-03-11T06:56:05;1.90;;;1.50;;
56824;SDS011;42705;50.326;18.772;2023-03-11T07:01:31;2.60;;;2.20;;
56824;SDS011;42705;50.326;18.772;2023-03-11T07:12:16;3.20;;;2.80;;
56824;SDS011;42705;50.326;18.772;2023-03-11T07:17:39;2.10;;;1.70;;
56824;SDS011;42705;50.326;18.772;2023-03-11T07:23:01;2.70;;;2.40;;
56824;SDS011;42705;50.326;18.772;2023-03-11T07:28:23;2.10;;;1.90;;
56824;SDS011;42705;50.326;18.772;2023-03-11T07:33:46;3.30;;;2.50;;
56824;SDS011;42705;50.326;18.772;2023-03-11T07:39:13;2.50;;;2.30;;
56824;SDS011;42705;50.326;18.772;2023-03-11T07:44:37;3.10;;;1.90;;
56824;SDS011;42705;50.326;18.772;2023-03-11T07:49:59;3.30;;;2.00;;
56824;SDS011;42705;50.326;18.772;2023-03-11T07:55:21;2.80;;;1.60;;
56824;SDS011;42705;50.326;18.772;2023-03-11T08:00:43;2.30;;;2.10;;
56824;SDS011;42705;50.326;18.772;2023-03-11T08:06:13;1.50;;;1.40;;
56824;SDS011;42705;50.326;18.772;2023-03-11T08:11:37;2.90;;;1.30;;
56824;SDS011;42705;50.326;18.772;2023-03-11T08:17:00;2.00;;;1.90;;
56824;SDS011;42705;50.326;18.772;2023-03-11T08:22:22;2.10;;;1.80;;
56824;SDS011;42705;50.326;18.772;2023-03-11T08:27:44;3.40;;;2.70;;
56824;SDS011;42705;50.326;18.772;2023-03-11T08:33:08;2.20;;;1.80;;
56824;SDS011;42705;50.326;18.772;2023-03-11T08:38:30;2.50;;;2.10;;
56824;SDS011;42705;50.326;18.772;2023-03-11T08:43:53;3.40;;;1.90;;
56824;SDS011;42705;50.326;18.772;2023-03-11T08:49:16;1.60;;;1.50;;
56824;SDS011;42705;50.326;18.772;2023-03-11T08:54:38;3.80;;;3.00;;
56824;SDS011;42705;50.326;18.772;2023-03-11T09:00:00;5.30;;;3.10;;
56824;SDS011;42705;50.326;18.772;2023-03-11T09:05:22;4.20;;;3.10;;
56824;SDS011;42705;50.326;18.772;2023-03-11T09:10:45;3.70;;;2.70;;
56824;SDS011;42705;50.326;18.772;2023-03-11T09:16:14;3.30;;;2.80;;
56824;SDS011;42705;50.326;18.772;2023-03-11T09:21:40;4.40;;;3.40;;
56824;SDS011;42705;50.326;18.772;2023-03-11T09:27:02;4.50;;;2.40;;
56824;SDS011;42705;50.326;18.772;2023-03-11T09:32:24;4.40;;;3.00;;
56824;SDS011;42705;50.326;18.772;2023-03-11T09:37:47;2.50;;;2.20;;
56824;SDS011;42705;50.326;18.772;2023-03-11T09:48:42;4.90;;;3.00;;
56824;SDS011;42705;50.326;18.772;2023-03-11T09:54:10;5.40;;;2.90;;
56824;SDS011;42705;50.326;18.772;2023-03-11T09:59:34;2.80;;;2.40;;
56824;SDS011;42705;50.326;18.772;2023-03-11T10:10:22;3.20;;;2.80;;
56824;SDS011;42705;50.326;18.772;2023-03-11T10:27:21;2.20;;;2.00;;
56824;SDS011;42705;50.326;18.772;2023-03-11T10:32:55;3.20;;;2.70;;
56824;SDS011;42705;50.326;18.772;2023-03-11T10:38:35;3.00;;;2.10;;
56824;SDS011;42705;50.326;18.772;2023-03-11T10:44:05;3.10;;;1.80;;
56824;SDS011;42705;50.326;18.772;2023-03-11T10:49:33;3.00;;;2.20;;
56824;SDS011;42705;50.326;18.772;2023-03-11T10:54:59;2.80;;;2.00;;
56824;SDS011;42705;50.326;18.772;2023-03-11T11:00:27;3.20;;;2.30;;
56824;SDS011;42705;50.326;18.772;2023-03-11T11:05:58;1.70;;;1.60;;
56824;SDS011;42705;50.326;18.772;2023-03-11T11:11:23;4.10;;;3.00;;
56824;SDS011;42705;50.326;18.772;2023-03-11T11:16:45;4.20;;;2.80;;
56824;SDS011;42705;50.326;18.772;2023-03-11T11:22:16;3.90;;;2.50;;
56824;SDS011;42705;50.326;18.772;2023-03-11T11:27:44;4.70;;;2.90;;
56824;SDS011;42705;50.326;18.772;2023-03-11T11:33:19;3.10;;;2.40;;
56824;SDS011;42705;50.326;18.772;2023-03-11T11:38:52;3.80;;;2.90;;
56824;SDS011;42705;50.326;18.772;2023-03-11T11:44:18;5.10;;;3.20;;
56824;SDS011;42705;50.326;18.772;2023-03-11T11:49:48;4.20;;;2.80;;
56824;SDS011;42705;50.326;18.772;2023-03-11T11:55:21;5.20;;;2.70;;
56824;SDS011;42705;50.326;18.772;2023-03-11T12:06:17;4.90;;;3.50;;
56824;SDS011;42705;50.326;18.772;2023-03-11T12:11:48;4.20;;;2.90;;
56824;SDS011;42705;50.326;18.772;2023-03-11T12:17:17;4.30;;;3.00;;
56824;SDS011;42705;50.326;18.772;2023-03-11T12:28:37;3.60;;;2.50;;
56824;SDS011;42705;50.326;18.772;2023-03-11T12:34:06;4.50;;;2.30;;
56824;SDS011;42705;50.326;18.772;2023-03-11T12:39:33;3.80;;;2.50;;
56824;SDS011;42705;50.326;18.772;2023-03-11T12:44:57;3.60;;;2.60;;
56824;SDS011;42705;50.326;18.772;2023-03-11T12:51:06;3.50;;;2.70;;
56824;SDS011;42705;50.326;18.772;2023-03-11T12:57:35;5.60;;;2.90;;
56824;SDS011;42705;50.326;18.772;2023-03-11T13:08:26;4.50;;;2.80;;
56824;SDS011;42705;50.326;18.772;2023-03-11T13:19:56;4.70;;;3.00;;
56824;SDS011;42705;50.326;18.772;2023-03-11T13:31:09;4.70;;;2.90;;
56824;SDS011;42705;50.326;18.772;2023-03-11T13:36:54;5.40;;;2.70;;
56824;SDS011;42705;50.326;18.772;2023-03-11T13:42:26;6.10;;;3.90;;
56824;SDS011;42705;50.326;18.772;2023-03-11T13:53:53;5.50;;;3.90;;
56824;SDS011;42705;50.326;18.772;2023-03-11T13:59:25;7.00;;;4.30;;
56824;SDS011;42705;50.326;18.772;2023-03-11T14:04:54;7.90;;;4.20;;
56824;SDS011;42705;50.326;18.772;2023-03-11T14:15:47;8.10;;;4.30;;
56824;SDS011;42705;50.326;18.772;2023-03-11T14:21:15;7.60;;;4.50;;
56824;SDS011;42705;50.326;18.772;2023-03-11T14:26:40;6.80;;;4.00;;
56824;SDS011;42705;50.326;18.772;2023-03-11T14:37:49;6.60;;;3.50;;
56824;SDS011;42705;50.326;18.772;2023-03-11T14:43:11;6.40;;;3.70;;
56824;SDS011;42705;50.326;18.772;2023-03-11T14:48:35;6.20;;;3.60;;
56824;SDS011;42705;50.326;18.772;2023-03-11T14:54:17;6.50;;;3.70;;
56824;SDS011;42705;50.326;18.772;2023-03-11T14:59:46;3.90;;;3.10;;
56824;SDS011;42705;50.326;18.772;2023-03-11T15:05:19;9.40;;;4.30;;
56824;SDS011;42705;50.326;18.772;2023-03-11T15:16:32;4.60;;;2.60;;
56824;SDS011;42705;50.326;18.772;2023-03-11T15:21:57;6.40;;;3.20;;
56824;SDS011;42705;50.326;18.772;2023-03-11T15:27:31;7.20;;;3.60;;
56824;SDS011;42705;50.326;18.772;2023-03-11T15:32:55;9.20;;;4.80;;
56824;SDS011;42705;50.326;18.772;2023-03-11T15:38:20;8.40;;;4.60;;
56824;SDS011;42705;50.326;18.772;2023-03-11T15:43:46;4.10;;;3.40;;
56824;SDS011;42705;50.326;18.772;2023-03-11T15:49:09;5.10;;;3.00;;
56824;SDS011;42705;50.326;18.772;2023-03-11T15:54:34;7.10;;;3.50;;
56824;SDS011;42705;50.326;18.772;2023-03-11T15:59:57;5.40;;;3.20;;
56824;SDS011;42705;50.326;18.772;2023-03-11T16:05:21;8.80;;;4.00;;
56824;SDS011;42705;50.326;18.772;2023-03-11T16:10:45;5.70;;;3.70;;
56824;SDS011;42705;50.326;18.772;2023-03-11T16:16:16;6.10;;;3.00;;
56824;SDS011;42705;50.326;18.772;2023-03-11T16:21:40;7.50;;;3.20;;
56824;SDS011;42705;50.326;18.772;2023-03-11T16:27:05;7.60;;;3.90;;
56824;SDS011;42705;50.326;18.772;2023-03-11T16:32:27;6.40;;;3.30;;
56824;SDS011;42705;50.326;18.772;2023-03-11T16:37:49;6.40;;;3.70;;
56824;SDS011;42705;50.326;18.772;2023-03-11T16:43:11;8.70;;;3.50;;
56824;SDS011;42705;50.326;18.772;2023-03-11T16:48:36;8.30;;;4.50;;
56824;SDS011;42705;50.326;18.772;2023-03-11T16:53:58;9.00;;;4.40;;
56824;SDS011;42705;50.326;18.772;2023-03-11T16:59:21;11.10;;;4.80;;
56824;SDS011;42705;50.326;18.772;2023-03-11T17:04:43;7.90;;;4.10;;
56824;SDS011;42705;50.326;18.772;2023-03-11T17:10:06;6.70;;;4.30;;
56824;SDS011;42705;50.326;18.772;2023-03-11T17:15:29;7.90;;;4.40;;
56824;SDS011;42705;50.326;18.772;2023-03-11T17:20:52;8.00;;;5.00;;
56824;SDS011;42705;50.326;18.772;2023-03-11T17:26:15;8.30;;;4.20;;
56824;SDS011;42705;50.326;18.772;2023-03-11T17:31:38;7.10;;;4.00;;
56824;SDS011;42705;50.326;18.772;2023-03-11T17:37:00;7.80;;;4.20;;
56824;SDS011;42705;50.326;18.772;2023-03-11T17:42:22;9.50;;;4.20;;
56824;SDS011;42705;50.326;18.772;2023-03-11T17:47:44;10.20;;;5.30;;
56824;SDS011;42705;50.326;18.772;2023-03-11T17:53:06;10.70;;;5.30;;
56824;SDS011;42705;50.326;18.772;2023-03-11T17:58:28;7.70;;;4.60;;
56824;SDS011;42705;50.326;18.772;2023-03-11T18:03:50;7.50;;;4.00;;
56824;SDS011;42705;50.326;18.772;2023-03-11T18:09:13;7.40;;;4.60;;
56824;SDS011;42705;50.326;18.772;2023-03-11T18:14:37;8.00;;;3.90;;
56824;SDS011;42705;50.326;18.772;2023-03-11T18:19:59;7.20;;;4.10;;
56824;SDS011;42705;50.326;18.772;2023-03-11T18:25:21;6.70;;;4.30;;
56824;SDS011;42705;50.326;18.772;2023-03-11T18:30:43;9.20;;;5.50;;
56824;SDS011;42705;50.326;18.772;2023-03-11T18:36:25;9.00;;;4.40;;
56824;SDS011;42705;50.326;18.772;2023-03-11T18:41:49;6.80;;;3.60;;
56824;SDS011;42705;50.326;18.772;2023-03-11T18:47:11;7.30;;;4.30;;
56824;SDS011;42705;50.326;18.772;2023-03-11T18:52:34;7.00;;;3.80;;
56824;SDS011;42705;50.326;18.772;2023-03-11T18:57:57;7.10;;;4.20;;
56824;SDS011;42705;50.326;18.772;2023-03-11T19:03:19;11.40;;;4.30;;
56824;SDS011;42705;50.326;18.772;2023-03-11T19:08:41;10.20;;;4.50;;
56824;SDS011;42705;50.326;18.772;2023-03-11T19:14:04;6.90;;;4.00;;
56824;SDS011;42705;50.326;18.772;2023-03-11T19:19:26;8.60;;;4.40;;
56824;SDS011;42705;50.326;18.772;2023-03-11T19:24:48;11.00;;;4.80;;
56824;SDS011;42705;50.326;18.772;2023-03-11T19:30:10;9.10;;;5.20;;
56824;SDS011;42705;50.326;18.772;2023-03-11T19:35:33;10.40;;;5.10;;
56824;SDS011;42705;50.326;18.772;2023-03-11T19:41:06;10.10;;;4.60;;
56824;SDS011;42705;50.326;18.772;2023-03-11T19:46:31;9.00;;;4.20;;
56824;SDS011;42705;50.326;18.772;2023-03-11T19:51:56;10.40;;;4.60;;
56824;SDS011;42705;50.326;18.772;2023-03-11T19:57:19;7.30;;;4.20;;
56824;SDS011;42705;50.326;18.772;2023-03-11T20:02:41;13.00;;;5.10;;
56824;SDS011;42705;50.326;18.772;2023-03-11T20:08:03;11.10;;;5.00;;
56824;SDS011;42705;50.326;18.772;2023-03-11T20:13:27;9.00;;;4.90;;
56824;SDS011;42705;50.326;18.772;2023-03-11T20:18:49;9.40;;;5.70;;
56824;SDS011;42705;50.326;18.772;2023-03-11T20:24:12;11.90;;;6.10;;
56824;SDS011;42705;50.326;18.772;2023-03-11T20:29:34;11.50;;;6.10;;
56824;SDS011;42705;50.326;18.772;2023-03-11T20:34:57;12.60;;;5.40;;
56824;SDS011;42705;50.326;18.772;2023-03-11T20:40:19;10.80;;;5.30;;
56824;SDS011;42705;50.326;18.772;2023-03-11T20:45:41;10.30;;;5.50;;
56824;SDS011;42705;50.326;18.772;2023-03-11T20:51:05;10.70;;;6.30;;
56824;SDS011;42705;50.326;18.772;2023-03-11T20:56:29;12.80;;;7.10;;
56824;SDS011;42705;50.326;18.772;2023-03-11T21:01:51;12.50;;;5.90;;
56824;SDS011;42705;50.326;18.772;2023-03-11T21:07:13;15.00;;;7.50;;
56824;SDS011;42705;50.326;18.772;2023-03-11T21:12:35;13.30;;;7.20;;
56824;SDS011;42705;50.326;18.772;2023-03-11T21:17:58;10.60;;;6.40;;
56824;SDS011;42705;50.326;18.772;2023-03-11T21:23:20;9.20;;;5.60;;
56824;SDS011;42705;50.326;18.772;2023-03-11T21:28:43;9.90;;;5.60;;
56824;SDS011;42705;50.326;18.772;2023-03-11T21:34:07;11.30;;;6.30;;
56824;SDS011;42705;50.326;18.772;2023-03-11T21:39:32;7.50;;;5.50;;
56824;SDS011;42705;50.326;18.772;2023-03-11T21:44:54;9.80;;;5.70;;
56824;SDS011;42705;50.326;18.772;2023-03-11T21:50:16;11.30;;;7.60;;
56824;SDS011;42705;50.326;18.772;2023-03-11T21:55:40;9.60;;;5.60;;
56824;SDS011;42705;50.326;18.772;2023-03-11T22:01:04;11.10;;;6.40;;
56824;SDS011;42705;50.326;18.772;2023-03-11T22:06:30;10.80;;;7.30;;
56824;SDS011;42705;50.326;18.772;2023-03-11T22:11:53;9.80;;;5.50;;
56824;SDS011;42705;50.326;18.772;2023-03-11T22:17:17;10.60;;;6.40;;
56824;SDS011;42705;50.326;18.772;2023-03-11T22:22:39;10.80;;;6.50;;
56824;SDS011;42705;50.326;18.772;2023-03-11T22:28:01;11.70;;;6.90;;
56824;SDS011;42705;50.326;18.772;2023-03-11T22:33:24;10.70;;;6.90;;
56824;SDS011;42705;50.326;18.772;2023-03-11T22:38:47;11.20;;;6.30;;
56824;SDS011;42705;50.326;18.772;2023-03-11T22:44:10;10.40;;;6.60;;
56824;SDS011;42705;50.326;18.772;2023-03-11T22:49:32;9.80;;;6.60;;
56824;SDS011;42705;50.326;18.772;2023-03-11T22:54:54;13.20;;;7.90;;
56824;SDS011;42705;50.326;18.772;2023-03-11T23:00:17;11.20;;;6.90;;
56824;SDS011;42705;50.326;18.772;2023-03-11T23:05:42;11.50;;;7.10;;
56824;SDS011;42705;50.326;18.772;2023-03-11T23:11:07;13.90;;;8.50;;
56824;SDS011;42705;50.326;18.772;2023-03-11T23:16:31;13.00;;;8.80;;
56824;SDS011;42705;50.326;18.772;2023-03-11T23:21:53;12.00;;;8.20;;
56824;SDS011;42705;50.326;18.772;2023-03-11T23:27:15;14.90;;;8.80;;
56824;SDS011;42705;50.326;18.772;2023-03-11T23:32:37;15.70;;;8.00;;
56824;SDS011;42705;50.326;18.772;2023-03-11T23:37:59;13.40;;;7.50;;
56824;SDS011;42705;50.326;18.772;2023-03-11T23:43:22;14.20;;;8.40;;
56824;SDS011;42705;50.326;18.772;2023-03-11T23:48:45;12.80;;;7.80;;
56824;SDS011;42705;50.326;18.772;2023-03-11T23:54:07;17.40;;;9.10;;
56824;SDS011;42705;50.326;18.772;2023-03-11T23:59:29;16.00;;;8.40;;
